sensor_id;sensor_type;location;lat;lon;timestamp;pressure;altitude;pressure_sealevel;temperature
75431;BMP280;64127;51.488;5.462;2023-08-30T00:01:13;100680.22;;;18.29
75431;BMP280;64127;51.488;5.462;2023-08-30T00:03:45;100681.97;;;18.27
75431;BMP280;64127;51.488;5.462;2023-08-30T00:06:17;100668.66;;;18.22
75431;BMP280;64127;51.488;5.462;2023-08-30T00:08:49;100665.97;;;18.19
75431;BMP280;64127;51.488;5.462;2023-08-30T00:11:21;100672.19;;;18.18
75431;BMP280;64127;51.488;5.462;2023-08-30T00:14:02;100667.72;;;18.11
75431;BMP280;64127;51.488;5.462;2023-08-30T00:16:36;100646.41;;;18.02
75431;BMP280;64127;51.488;5.462;2023-08-30T00:19:10;100673.91;;;18.13
75431;BMP280;64127;51.488;5.462;2023-08-30T00:21:42;100667.69;;;18.09
75431;BMP280;64127;51.488;5.462;2023-08-30T00:24:14;100662.38;;;18.09
75431;BMP280;64127;51.488;5.462;2023-08-30T00:26:46;100665.03;;;18.09
75431;BMP280;64127;51.488;5.462;2023-08-30T00:29:18;100658.81;;;18.06
75431;BMP280;64127;51.488;5.462;2023-08-30T00:31:50;100654.38;;;18.05
75431;BMP280;64127;51.488;5.462;2023-08-30T00:34:22;100653.47;;;18.03
75431;BMP280;64127;51.488;5.462;2023-08-30T00:36:54;100624.16;;;17.88
75431;BMP280;64127;51.488;5.462;2023-08-30T00:39:26;100655.28;;;18.04
75431;BMP280;64127;51.488;5.462;2023-08-30T00:41:58;100650.84;;;18.06
75431;BMP280;64127;51.488;5.462;2023-08-30T00:44:33;100642.00;;;18.04
75431;BMP280;64127;51.488;5.462;2023-08-30T00:47:05;100642.00;;;18.04
75431;BMP280;64127;51.488;5.462;2023-08-30T00:49:38;100628.69;;;17.99
75431;BMP280;64127;51.488;5.462;2023-08-30T00:52:11;100634.94;;;18.01
75431;BMP280;64127;51.488;5.462;2023-08-30T00:54:43;100630.44;;;17.96
75431;BMP280;64127;51.488;5.462;2023-08-30T00:57:16;100631.28;;;17.92
75431;BMP280;64127;51.488;5.462;2023-08-30T00:59:51;100626.84;;;17.89
75431;BMP280;64127;51.488;5.462;2023-08-30T01:02:25;100622.41;;;17.84
75431;BMP280;64127;51.488;5.462;2023-08-30T01:04:57;100624.13;;;17.79
75431;BMP280;64127;51.488;5.462;2023-08-30T01:07:29;100624.09;;;17.76
75431;BMP280;64127;51.488;5.462;2023-08-30T01:10:02;100625.84;;;17.73
75431;BMP280;64127;51.488;5.462;2023-08-30T01:12:48;100602.66;;;17.54
75431;BMP280;64127;51.488;5.462;2023-08-30T01:15:22;100630.22;;;17.68
75431;BMP280;64127;51.488;5.462;2023-08-30T01:17:56;100627.53;;;17.65
75431;BMP280;64127;51.488;5.462;2023-08-30T01:20:29;100634.59;;;17.63
75431;BMP280;64127;51.488;5.462;2023-08-30T01:23:23;100624.84;;;17.59
75431;BMP280;64127;51.488;5.462;2023-08-30T01:26:09;100621.31;;;17.59
75431;BMP280;64127;51.488;5.462;2023-08-30T01:28:43;100616.91;;;17.59
75431;BMP280;64127;51.488;5.462;2023-08-30T01:31:19;100611.59;;;17.59
75431;BMP280;64127;51.488;5.462;2023-08-30T01:33:52;100609.81;;;17.58
75431;BMP280;64127;51.488;5.462;2023-08-30T01:36:25;100618.63;;;17.57
75431;BMP280;64127;51.488;5.462;2023-08-30T01:38:58;100616.88;;;17.56
75431;BMP280;64127;51.488;5.462;2023-08-30T01:41:32;100621.22;;;17.53
75431;BMP280;64127;51.488;5.462;2023-08-30T01:44:12;100591.00;;;17.33
75431;BMP280;64127;51.488;5.462;2023-08-30T01:46:45;100612.31;;;17.48
75431;BMP280;64127;51.488;5.462;2023-08-30T01:49:18;100598.06;;;17.37
75431;BMP280;64127;51.488;5.462;2023-08-30T01:51:51;100620.28;;;17.46
75431;BMP280;64127;51.488;5.462;2023-08-30T01:54:25;100590.94;;;17.30
75431;BMP280;64127;51.488;5.462;2023-08-30T01:56:59;100593.59;;;17.28
75431;BMP280;64127;51.488;5.462;2023-08-30T01:59:46;100616.63;;;17.35
75431;BMP280;64127;51.488;5.462;2023-08-30T02:02:18;100606.81;;;17.27
75431;BMP280;64127;51.488;5.462;2023-08-30T02:04:50;100605.13;;;17.32
75431;BMP280;64127;51.488;5.462;2023-08-30T02:10:10;100611.19;;;17.23
75431;BMP280;64127;51.488;5.462;2023-08-30T02:12:51;100608.50;;;17.17
75431;BMP280;64127;51.488;5.462;2023-08-30T02:15:26;100607.63;;;17.18
75431;BMP280;64127;51.488;5.462;2023-08-30T02:18:01;100530.38;;;16.79
75431;BMP280;64127;51.488;5.462;2023-08-30T02:20:35;100607.63;;;17.18
75431;BMP280;64127;51.488;5.462;2023-08-30T02:23:09;100596.06;;;17.13
75431;BMP280;64127;51.488;5.462;2023-08-30T02:25:46;100602.31;;;17.18
75431;BMP280;64127;51.488;5.462;2023-08-30T02:28:18;100594.31;;;17.13
75431;BMP280;64127;51.488;5.462;2023-08-30T02:30:53;100575.69;;;17.06
75431;BMP280;64127;51.488;5.462;2023-08-30T02:33:26;100593.47;;;17.14
75431;BMP280;64127;51.488;5.462;2023-08-30T02:36:00;100570.41;;;17.06
75431;BMP280;64127;51.488;5.462;2023-08-30T02:38:32;100574.84;;;17.05
75431;BMP280;64127;51.488;5.462;2023-08-30T02:41:04;100593.44;;;17.16
75431;BMP280;64127;51.488;5.462;2023-08-30T02:43:36;100555.31;;;16.99
75431;BMP280;64127;51.488;5.462;2023-08-30T02:46:09;100576.63;;;17.12
75431;BMP280;64127;51.488;5.462;2023-08-30T02:48:41;100565.16;;;17.10
75431;BMP280;64127;51.488;5.462;2023-08-30T02:51:13;100565.13;;;17.09
75431;BMP280;64127;51.488;5.462;2023-08-30T02:53:45;100577.66;;;17.25
75431;BMP280;64127;51.488;5.462;2023-08-30T02:56:17;100552.81;;;17.11
75431;BMP280;64127;51.488;5.462;2023-08-30T02:58:49;100568.84;;;17.28
75431;BMP280;64127;51.488;5.462;2023-08-30T03:01:21;100537.81;;;17.11
75431;BMP280;64127;51.488;5.462;2023-08-30T03:03:53;100560.94;;;17.34
75431;BMP280;64127;51.488;5.462;2023-08-30T03:06:26;100561.81;;;17.31
75431;BMP280;64127;51.488;5.462;2023-08-30T03:08:59;100549.44;;;17.30
75431;BMP280;64127;51.488;5.462;2023-08-30T03:11:31;100565.44;;;17.39
75431;BMP280;64127;51.488;5.462;2023-08-30T03:14:04;100568.09;;;17.41
75431;BMP280;64127;51.488;5.462;2023-08-30T03:16:36;100551.22;;;17.31
75431;BMP280;64127;51.488;5.462;2023-08-30T03:19:08;100549.50;;;17.36
75431;BMP280;64127;51.488;5.462;2023-08-30T03:21:40;100559.28;;;17.45
75431;BMP280;64127;51.488;5.462;2023-08-30T03:24:12;100535.31;;;17.31
75431;BMP280;64127;51.488;5.462;2023-08-30T03:26:45;100542.44;;;17.38
75431;BMP280;64127;51.488;5.462;2023-08-30T03:29:17;100536.25;;;17.38
75431;BMP280;64127;51.488;5.462;2023-08-30T03:31:50;100548.72;;;17.48
75431;BMP280;64127;51.488;5.462;2023-08-30T03:34:22;100546.09;;;17.49
75431;BMP280;64127;51.488;5.462;2023-08-30T03:36:54;100543.44;;;17.54
75431;BMP280;64127;51.488;5.462;2023-08-30T03:39:26;100539.94;;;17.55
75431;BMP280;64127;51.488;5.462;2023-08-30T03:41:58;100524.91;;;17.55
75431;BMP280;64127;51.488;5.462;2023-08-30T03:44:30;100491.25;;;17.39
75431;BMP280;64127;51.488;5.462;2023-08-30T03:47:02;100516.13;;;17.56
75431;BMP280;64127;51.488;5.462;2023-08-30T03:49:35;100496.59;;;17.51
75431;BMP280;64127;51.488;5.462;2023-08-30T03:52:07;100495.75;;;17.55
75431;BMP280;64127;51.488;5.462;2023-08-30T03:57:20;100493.16;;;17.58
75431;BMP280;64127;51.488;5.462;2023-08-30T03:59:52;100490.47;;;17.57
75431;BMP280;64127;51.488;5.462;2023-08-30T04:02:24;100483.44;;;17.56
75431;BMP280;64127;51.488;5.462;2023-08-30T04:04:56;100473.72;;;17.56
75431;BMP280;64127;51.488;5.462;2023-08-30T04:07:28;100472.78;;;17.54
75431;BMP280;64127;51.488;5.462;2023-08-30T04:10:00;100475.47;;;17.57
75431;BMP280;64127;51.488;5.462;2023-08-30T04:12:35;100469.25;;;17.55
75431;BMP280;64127;51.488;5.462;2023-08-30T04:15:08;100463.94;;;17.52
75431;BMP280;64127;51.488;5.462;2023-08-30T04:17:41;100461.28;;;17.49
75431;BMP280;64127;51.488;5.462;2023-08-30T04:20:13;100454.13;;;17.41
75431;BMP280;64127;51.488;5.462;2023-08-30T04:22:45;100459.44;;;17.42
75431;BMP280;64127;51.488;5.462;2023-08-30T04:25:17;100461.16;;;17.37
75431;BMP280;64127;51.488;5.462;2023-08-30T04:27:49;100466.47;;;17.33
75431;BMP280;64127;51.488;5.462;2023-08-30T04:30:22;100470.84;;;17.31
75431;BMP280;64127;51.488;5.462;2023-08-30T04:32:54;100470.84;;;17.29
75431;BMP280;64127;51.488;5.462;2023-08-30T04:35:26;100469.97;;;17.33
75431;BMP280;64127;51.488;5.462;2023-08-30T04:37:59;100455.81;;;17.31
75431;BMP280;64127;51.488;5.462;2023-08-30T04:40:32;100461.16;;;17.37
75431;BMP280;64127;51.488;5.462;2023-08-30T04:43:04;100454.13;;;17.39
75431;BMP280;64127;51.488;5.462;2023-08-30T04:45:36;100451.47;;;17.39
75431;BMP280;64127;51.488;5.462;2023-08-30T04:48:08;100427.53;;;17.26
75431;BMP280;64127;51.488;5.462;2023-08-30T04:50:41;100451.50;;;17.42
75431;BMP280;64127;51.488;5.462;2023-08-30T04:53:13;100440.84;;;17.38
75431;BMP280;64127;51.488;5.462;2023-08-30T04:55:45;100452.41;;;17.46
75431;BMP280;64127;51.488;5.462;2023-08-30T04:58:16;100454.16;;;17.45
75431;BMP280;64127;51.488;5.462;2023-08-30T05:00:48;100449.78;;;17.49
75431;BMP280;64127;51.488;5.462;2023-08-30T05:03:21;100443.59;;;17.48
75431;BMP280;64127;51.488;5.462;2023-08-30T05:05:53;100440.00;;;17.43
75431;BMP280;64127;51.488;5.462;2023-08-30T05:08:25;100437.34;;;17.43
75431;BMP280;64127;51.488;5.462;2023-08-30T05:10:57;100432.94;;;17.44
75431;BMP280;64127;51.488;5.462;2023-08-30T05:13:29;100428.50;;;17.38
75431;BMP280;64127;51.488;5.462;2023-08-30T05:16:01;100432.97;;;17.45
75431;BMP280;64127;51.488;5.462;2023-08-30T05:18:33;100433.84;;;17.46
75431;BMP280;64127;51.488;5.462;2023-08-30T05:21:05;100421.47;;;17.45
75431;BMP280;64127;51.488;5.462;2023-08-30T05:23:37;100425.88;;;17.44
75431;BMP280;64127;51.488;5.462;2023-08-30T05:26:12;100423.25;;;17.47
75431;BMP280;64127;51.488;5.462;2023-08-30T05:28:44;100392.25;;;17.34
75431;BMP280;64127;51.488;5.462;2023-08-30T05:31:16;100393.16;;;17.36
75431;BMP280;64127;51.488;5.462;2023-08-30T05:33:48;100416.19;;;17.46
75431;BMP280;64127;51.488;5.462;2023-08-30T05:36:20;100416.19;;;17.46
75431;BMP280;64127;51.488;5.462;2023-08-30T05:38:52;100423.28;;;17.49
75431;BMP280;64127;51.488;5.462;2023-08-30T05:41:24;100413.53;;;17.46
75431;BMP280;64127;51.488;5.462;2023-08-30T05:43:56;100411.78;;;17.48
75431;BMP280;64127;51.488;5.462;2023-08-30T05:46:28;100414.44;;;17.50
75431;BMP280;64127;51.488;5.462;2023-08-30T05:49:00;100404.69;;;17.47
75431;BMP280;64127;51.488;5.462;2023-08-30T05:51:34;100400.28;;;17.48
75431;BMP280;64127;51.488;5.462;2023-08-30T05:54:06;100399.38;;;17.47
75431;BMP280;64127;51.488;5.462;2023-08-30T05:56:38;100401.16;;;17.48
75431;BMP280;64127;51.488;5.462;2023-08-30T05:59:10;100398.53;;;17.51
75431;BMP280;64127;51.488;5.462;2023-08-30T06:01:43;100398.56;;;17.53
75431;BMP280;64127;51.488;5.462;2023-08-30T06:04:15;100396.84;;;17.56
75431;BMP280;64127;51.488;5.462;2023-08-30T06:06:47;100392.44;;;17.61
75431;BMP280;64127;51.488;5.462;2023-08-30T06:09:19;100401.31;;;17.63
75431;BMP280;64127;51.488;5.462;2023-08-30T06:11:51;100369.34;;;17.45
75431;BMP280;64127;51.488;5.462;2023-08-30T06:14:23;100387.97;;;17.53
75431;BMP280;64127;51.488;5.462;2023-08-30T06:16:55;100396.78;;;17.55
75431;BMP280;64127;51.488;5.462;2023-08-30T06:19:27;100387.03;;;17.51
75431;BMP280;64127;51.488;5.462;2023-08-30T06:21:59;100389.69;;;17.48
75431;BMP280;64127;51.488;5.462;2023-08-30T06:24:31;100374.66;;;17.42
75431;BMP280;64127;51.488;5.462;2023-08-30T06:27:03;100379.03;;;17.43
75431;BMP280;64127;51.488;5.462;2023-08-30T06:29:36;100374.66;;;17.48
75431;BMP280;64127;51.488;5.462;2023-08-30T06:32:08;100373.78;;;17.51
75431;BMP280;64127;51.488;5.462;2023-08-30T06:34:40;100367.59;;;17.47
75431;BMP280;64127;51.488;5.462;2023-08-30T06:37:12;100380.00;;;17.54
75431;BMP280;64127;51.488;5.462;2023-08-30T06:39:44;100379.16;;;17.58
75431;BMP280;64127;51.488;5.462;2023-08-30T06:42:16;100381.78;;;17.55
75431;BMP280;64127;51.488;5.462;2023-08-30T06:44:48;100396.88;;;17.62
75431;BMP280;64127;51.488;5.462;2023-08-30T06:47:20;100385.28;;;17.54
75431;BMP280;64127;51.488;5.462;2023-08-30T06:49:52;100392.38;;;17.52
75431;BMP280;64127;51.488;5.462;2023-08-30T06:52:24;100375.53;;;17.47
75431;BMP280;64127;51.488;5.462;2023-08-30T06:54:56;100392.38;;;17.52
75431;BMP280;64127;51.488;5.462;2023-08-30T06:57:28;100401.19;;;17.54
75431;BMP280;64127;51.488;5.462;2023-08-30T07:00:00;100394.09;;;17.50
75431;BMP280;64127;51.488;5.462;2023-08-30T07:02:39;100406.47;;;17.48
75431;BMP280;64127;51.488;5.462;2023-08-30T07:05:12;100394.06;;;17.38
75431;BMP280;64127;51.488;5.462;2023-08-30T07:07:44;100392.25;;;17.37
75431;BMP280;64127;51.488;5.462;2023-08-30T07:10:17;100398.41;;;17.30
75431;BMP280;64127;51.488;5.462;2023-08-30T07:12:49;100396.63;;;17.28
75431;BMP280;64127;51.488;5.462;2023-08-30T07:15:21;100392.19;;;17.19
75431;BMP280;64127;51.488;5.462;2023-08-30T07:17:53;100387.72;;;17.15
75431;BMP280;64127;51.488;5.462;2023-08-30T07:20:28;100375.31;;;17.12
75431;BMP280;64127;51.488;5.462;2023-08-30T07:23:00;100365.56;;;17.04
75431;BMP280;64127;51.488;5.462;2023-08-30T07:25:33;100370.00;;;17.06
75431;BMP280;64127;51.488;5.462;2023-08-30T07:28:05;100362.03;;;17.02
75431;BMP280;64127;51.488;5.462;2023-08-30T07:30:38;100357.59;;;16.99
75431;BMP280;64127;51.488;5.462;2023-08-30T07:33:10;100349.66;;;16.98
75431;BMP280;64127;51.488;5.462;2023-08-30T07:35:42;100359.38;;;17.00
75431;BMP280;64127;51.488;5.462;2023-08-30T07:38:14;100354.06;;;17.00
75431;BMP280;64127;51.488;5.462;2023-08-30T07:40:46;100355.84;;;17.03
75431;BMP280;64127;51.488;5.462;2023-08-30T07:43:18;100351.47;;;17.05
75431;BMP280;64127;51.488;5.462;2023-08-30T07:45:50;100349.69;;;17.07
75431;BMP280;64127;51.488;5.462;2023-08-30T07:48:22;100316.06;;;16.91
75431;BMP280;64127;51.488;5.462;2023-08-30T07:50:54;100353.22;;;17.04
75431;BMP280;64127;51.488;5.462;2023-08-30T07:53:26;100352.31;;;17.02
75431;BMP280;64127;51.488;5.462;2023-08-30T07:55:58;100346.09;;;16.99
75431;BMP280;64127;51.488;5.462;2023-08-30T07:58:30;100344.34;;;16.95
75431;BMP280;64127;51.488;5.462;2023-08-30T08:01:02;100349.63;;;16.92
75431;BMP280;64127;51.488;5.462;2023-08-30T08:03:35;100355.72;;;16.86
75431;BMP280;64127;51.488;5.462;2023-08-30T08:06:10;100346.91;;;16.84
75431;BMP280;64127;51.488;5.462;2023-08-30T08:08:44;100335.41;;;16.81
75431;BMP280;64127;51.488;5.462;2023-08-30T08:11:16;100338.03;;;16.79
75431;BMP280;64127;51.488;5.462;2023-08-30T08:13:47;100352.19;;;16.81
75431;BMP280;64127;51.488;5.462;2023-08-30T08:16:20;100349.47;;;16.78
75431;BMP280;64127;51.488;5.462;2023-08-30T08:18:52;100345.97;;;16.78
75431;BMP280;64127;51.488;5.462;2023-08-30T08:21:26;100344.19;;;16.77
75431;BMP280;64127;51.488;5.462;2023-08-30T08:23:58;100351.25;;;16.78
75431;BMP280;64127;51.488;5.462;2023-08-30T08:26:30;100347.69;;;16.76
75431;BMP280;64127;51.488;5.462;2023-08-30T08:29:02;100336.22;;;16.73
75431;BMP280;64127;51.488;5.462;2023-08-30T08:31:35;100351.28;;;16.81
75431;BMP280;64127;51.488;5.462;2023-08-30T08:34:12;100353.94;;;16.84
75431;BMP280;64127;51.488;5.462;2023-08-30T08:36:44;100356.63;;;16.87
75431;BMP280;64127;51.488;5.462;2023-08-30T08:39:16;100352.19;;;16.84
75431;BMP280;64127;51.488;5.462;2023-08-30T08:41:51;100352.19;;;16.81
75431;BMP280;64127;51.488;5.462;2023-08-30T08:44:27;100346.88;;;16.83
75431;BMP280;64127;51.488;5.462;2023-08-30T08:47:03;100354.84;;;16.86
75431;BMP280;64127;51.488;5.462;2023-08-30T08:49:35;100344.25;;;16.89
75431;BMP280;64127;51.488;5.462;2023-08-30T08:52:08;100354.91;;;16.92
75431;BMP280;64127;51.488;5.462;2023-08-30T08:54:59;100353.13;;;16.92
75431;BMP280;64127;51.488;5.462;2023-08-30T08:57:32;100351.38;;;16.91
75431;BMP280;64127;51.488;5.462;2023-08-30T09:00:05;100338.13;;;16.93
75431;BMP280;64127;51.488;5.462;2023-08-30T09:02:40;100352.25;;;16.93
75431;BMP280;64127;51.488;5.462;2023-08-30T09:05:13;100354.94;;;16.95
75431;BMP280;64127;51.488;5.462;2023-08-30T09:07:47;100349.63;;;16.95
75431;BMP280;64127;51.488;5.462;2023-08-30T09:10:20;100358.47;;;17.00
75431;BMP280;64127;51.488;5.462;2023-08-30T09:12:53;100353.19;;;17.00
75431;BMP280;64127;51.488;5.462;2023-08-30T09:15:33;100352.25;;;16.93
75431;BMP280;64127;51.488;5.462;2023-08-30T09:18:18;100357.59;;;16.98
75431;BMP280;64127;51.488;5.462;2023-08-30T09:20:50;100339.09;;;17.07
75431;BMP280;64127;51.488;5.462;2023-08-30T09:23:22;100345.34;;;17.15
75431;BMP280;64127;51.488;5.462;2023-08-30T09:25:56;100347.13;;;17.19
75431;BMP280;64127;51.488;5.462;2023-08-30T09:28:29;100337.44;;;17.24
75431;BMP280;64127;51.488;5.462;2023-08-30T09:31:01;100341.91;;;17.34
75431;BMP280;64127;51.488;5.462;2023-08-30T09:33:58;100347.22;;;17.34
75431;BMP280;64127;51.488;5.462;2023-08-30T09:36:36;100347.22;;;17.36
75431;BMP280;64127;51.488;5.462;2023-08-30T09:39:14;100350.78;;;17.41
75431;BMP280;64127;51.488;5.462;2023-08-30T09:41:48;100351.66;;;17.44
75431;BMP280;64127;51.488;5.462;2023-08-30T09:44:21;100334.91;;;17.47
75431;BMP280;64127;51.488;5.462;2023-08-30T09:46:55;100351.75;;;17.53
75431;BMP280;64127;51.488;5.462;2023-08-30T09:49:28;100344.66;;;17.55
75431;BMP280;64127;51.488;5.462;2023-08-30T09:52:02;100350.03;;;17.61
75431;BMP280;64127;51.488;5.462;2023-08-30T09:54:39;100364.22;;;17.69
75431;BMP280;64127;51.488;5.462;2023-08-30T09:57:14;100359.81;;;17.79
75431;BMP280;64127;51.488;5.462;2023-08-30T09:59:48;100355.41;;;17.83
75431;BMP280;64127;51.488;5.462;2023-08-30T10:02:20;100347.47;;;17.92
75431;BMP280;64127;51.488;5.462;2023-08-30T10:04:53;100343.13;;;18.16
75431;BMP280;64127;51.488;5.462;2023-08-30T10:07:26;100344.03;;;18.37
75431;BMP280;64127;51.488;5.462;2023-08-30T10:10:00;100343.19;;;18.45
75431;BMP280;64127;51.488;5.462;2023-08-30T10:12:46;100317.53;;;18.50
75431;BMP280;64127;51.488;5.462;2023-08-30T10:15:35;100318.44;;;18.77
75431;BMP280;64127;51.488;5.462;2023-08-30T10:18:15;100316.63;;;19.00
75431;BMP280;64127;51.488;5.462;2023-08-30T10:20:53;100319.22;;;19.24
75431;BMP280;64127;51.488;5.462;2023-08-30T10:23:28;100305.03;;;19.27
75431;BMP280;64127;51.488;5.462;2023-08-30T10:26:02;100312.09;;;19.34
75431;BMP280;64127;51.488;5.462;2023-08-30T10:28:36;100316.50;;;19.51
75431;BMP280;64127;51.488;5.462;2023-08-30T10:31:10;100321.75;;;19.60
75431;BMP280;64127;51.488;5.462;2023-08-30T10:33:50;100301.34;;;19.67
75431;BMP280;64127;51.488;5.462;2023-08-30T10:36:26;100302.19;;;19.73
75431;BMP280;64127;51.488;5.462;2023-08-30T10:38:59;100296.88;;;19.73
75431;BMP280;64127;51.488;5.462;2023-08-30T10:41:31;100309.19;;;19.87
75431;BMP280;64127;51.488;5.462;2023-08-30T10:44:03;100301.13;;;20.02
75431;BMP280;64127;51.488;5.462;2023-08-30T10:46:35;100295.66;;;20.21
75431;BMP280;64127;51.488;5.462;2023-08-30T10:49:19;100303.53;;;20.41
75431;BMP280;64127;51.488;5.462;2023-08-30T10:51:57;100306.19;;;20.43
75431;BMP280;64127;51.488;5.462;2023-08-30T10:54:37;100303.44;;;20.56
75431;BMP280;64127;51.488;5.462;2023-08-30T10:57:20;100294.38;;;20.72
75431;BMP280;64127;51.488;5.462;2023-08-30T11:02:51;100284.47;;;20.88
75431;BMP280;64127;51.488;5.462;2023-08-30T11:05:26;100288.88;;;20.91
75431;BMP280;64127;51.488;5.462;2023-08-30T11:08:00;100287.25;;;20.78
75431;BMP280;64127;51.488;5.462;2023-08-30T11:10:32;100286.31;;;20.80
75431;BMP280;64127;51.488;5.462;2023-08-30T11:13:04;100281.78;;;20.90
75431;BMP280;64127;51.488;5.462;2023-08-30T11:15:36;100295.06;;;20.93
75431;BMP280;64127;51.488;5.462;2023-08-30T11:18:08;100285.44;;;20.80
75431;BMP280;64127;51.488;5.462;2023-08-30T11:20:42;100282.03;;;20.68
75431;BMP280;64127;51.488;5.462;2023-08-30T11:23:15;100283.78;;;20.66
75431;BMP280;64127;51.488;5.462;2023-08-30T11:25:51;100292.50;;;20.84
75431;BMP280;64127;51.488;5.462;2023-08-30T11:28:24;100299.63;;;20.85
75431;BMP280;64127;51.488;5.462;2023-08-30T11:30:56;100296.09;;;20.80
75431;BMP280;64127;51.488;5.462;2023-08-30T11:33:28;100277.50;;;20.75
75431;BMP280;64127;51.488;5.462;2023-08-30T11:36:00;100290.72;;;20.83
75431;BMP280;64127;51.488;5.462;2023-08-30T11:38:34;100296.06;;;20.83
75431;BMP280;64127;51.488;5.462;2023-08-30T11:41:06;100290.84;;;20.73
75431;BMP280;64127;51.488;5.462;2023-08-30T11:43:39;100290.91;;;20.66
75431;BMP280;64127;51.488;5.462;2023-08-30T11:46:11;100303.41;;;20.59
75431;BMP280;64127;51.488;5.462;2023-08-30T11:48:47;100319.47;;;20.50
75431;BMP280;64127;51.488;5.462;2023-08-30T11:51:20;100308.00;;;20.38
75431;BMP280;64127;51.488;5.462;2023-08-30T11:53:53;100299.97;;;20.45
75431;BMP280;64127;51.488;5.462;2023-08-30T11:56:26;100296.13;;;20.77
75431;BMP280;64127;51.488;5.462;2023-08-30T11:58:58;100291.44;;;21.00
75431;BMP280;64127;51.488;5.462;2023-08-30T12:01:32;100295.78;;;21.14
75431;BMP280;64127;51.488;5.462;2023-08-30T12:04:11;100301.09;;;21.16
75431;BMP280;64127;51.488;5.462;2023-08-30T12:06:50;100304.75;;;21.03
75431;BMP280;64127;51.488;5.462;2023-08-30T12:09:22;100304.00;;;20.92
75431;BMP280;64127;51.488;5.462;2023-08-30T12:12:09;100299.44;;;21.01
75431;BMP280;64127;51.488;5.462;2023-08-30T12:14:42;100296.75;;;21.06
75431;BMP280;64127;51.488;5.462;2023-08-30T12:17:15;100298.53;;;21.04
75431;BMP280;64127;51.488;5.462;2023-08-30T12:19:58;100300.31;;;21.00
75431;BMP280;64127;51.488;5.462;2023-08-30T12:22:40;100296.81;;;20.97
75431;BMP280;64127;51.488;5.462;2023-08-30T12:25:20;100303.09;;;20.90
75431;BMP280;64127;51.488;5.462;2023-08-30T12:27:53;100299.50;;;20.94
75431;BMP280;64127;51.488;5.462;2023-08-30T12:30:26;100303.06;;;20.94
75431;BMP280;64127;51.488;5.462;2023-08-30T12:33:01;100297.59;;;21.12
75431;BMP280;64127;51.488;5.462;2023-08-30T12:35:35;100300.91;;;21.31
75431;BMP280;64127;51.488;5.462;2023-08-30T12:38:07;100298.97;;;21.45
75431;BMP280;64127;51.488;5.462;2023-08-30T12:40:41;100276.72;;;21.46
75431;BMP280;64127;51.488;5.462;2023-08-30T12:43:13;100312.75;;;21.81
75431;BMP280;64127;51.488;5.462;2023-08-30T12:45:47;100282.50;;;21.79
75431;BMP280;64127;51.488;5.462;2023-08-30T12:48:19;100307.16;;;22.02
75431;BMP280;64127;51.488;5.462;2023-08-30T12:50:51;100308.00;;;22.02
75431;BMP280;64127;51.488;5.462;2023-08-30T12:53:23;100321.50;;;21.89
75431;BMP280;64127;51.488;5.462;2023-08-30T12:55:55;100323.53;;;21.71
75431;BMP280;64127;51.488;5.462;2023-08-30T12:58:27;100312.00;;;21.68
75431;BMP280;64127;51.488;5.462;2023-08-30T13:00:59;100320.84;;;21.73
75431;BMP280;64127;51.488;5.462;2023-08-30T13:03:31;100320.00;;;21.69
75431;BMP280;64127;51.488;5.462;2023-08-30T13:06:03;100310.31;;;21.64
75431;BMP280;64127;51.488;5.462;2023-08-30T13:08:37;100310.16;;;21.73
75431;BMP280;64127;51.488;5.462;2023-08-30T13:11:09;100300.19;;;21.86
75431;BMP280;64127;51.488;5.462;2023-08-30T13:13:41;100308.97;;;21.97
75431;BMP280;64127;51.488;5.462;2023-08-30T13:16:14;100310.75;;;21.98
75431;BMP280;64127;51.488;5.462;2023-08-30T13:18:46;100310.47;;;22.17
75431;BMP280;64127;51.488;5.462;2023-08-30T13:21:18;100307.50;;;22.36
75431;BMP280;64127;51.488;5.462;2023-08-30T13:23:58;100317.06;;;22.50
75431;BMP280;64127;51.488;5.462;2023-08-30T13:26:30;100320.44;;;22.63
75431;BMP280;64127;51.488;5.462;2023-08-30T13:29:02;100323.28;;;22.52
75431;BMP280;64127;51.488;5.462;2023-08-30T13:31:34;100320.72;;;22.43
75431;BMP280;64127;51.488;5.462;2023-08-30T13:34:06;100316.53;;;22.29
75431;BMP280;64127;51.488;5.462;2023-08-30T13:36:38;100318.56;;;22.11
75431;BMP280;64127;51.488;5.462;2023-08-30T13:39:11;100327.63;;;22.01
75431;BMP280;64127;51.488;5.462;2023-08-30T13:41:43;100318.69;;;22.02
75431;BMP280;64127;51.488;5.462;2023-08-30T13:44:15;100316.84;;;22.07
75431;BMP280;64127;51.488;5.462;2023-08-30T13:46:47;100323.97;;;22.08
75431;BMP280;64127;51.488;5.462;2023-08-30T13:49:20;100315.94;;;22.08
75431;BMP280;64127;51.488;5.462;2023-08-30T13:51:53;100317.63;;;22.14
75431;BMP280;64127;51.488;5.462;2023-08-30T13:54:26;100307.78;;;22.19
75431;BMP280;64127;51.488;5.462;2023-08-30T13:57:00;100304.16;;;22.21
75431;BMP280;64127;51.488;5.462;2023-08-30T13:59:32;100305.06;;;22.22
75431;BMP280;64127;51.488;5.462;2023-08-30T14:02:07;100309.34;;;22.31
75431;BMP280;64127;51.488;5.462;2023-08-30T14:04:39;100306.63;;;22.35
75431;BMP280;64127;51.488;5.462;2023-08-30T14:07:11;100317.09;;;22.49
75431;BMP280;64127;51.488;5.462;2023-08-30T14:09:43;100320.50;;;22.58
75431;BMP280;64127;51.488;5.462;2023-08-30T14:12:15;100327.72;;;22.53
75431;BMP280;64127;51.488;5.462;2023-08-30T14:21:45;100322.28;;;22.59
75431;BMP280;64127;51.488;5.462;2023-08-30T14:24:18;100326.00;;;22.49
75431;BMP280;64127;51.488;5.462;2023-08-30T14:26:57;100329.78;;;22.33
75431;BMP280;64127;51.488;5.462;2023-08-30T14:29:31;100323.91;;;22.10
75431;BMP280;64127;51.488;5.462;2023-08-30T14:32:03;100318.03;;;21.84
75431;BMP280;64127;51.488;5.462;2023-08-30T14:34:35;100338.19;;;22.09
75431;BMP280;64127;51.488;5.462;2023-08-30T14:37:08;100331.88;;;22.13
75431;BMP280;64127;51.488;5.462;2023-08-30T14:39:40;100348.00;;;22.07
75431;BMP280;64127;51.488;5.462;2023-08-30T14:42:12;100348.25;;;21.90
75431;BMP280;64127;51.488;5.462;2023-08-30T14:44:49;100360.84;;;21.76
75431;BMP280;64127;51.488;5.462;2023-08-30T14:47:21;100361.88;;;21.64